Time;durP1;ratioP1;P1;durP2;ratioP2;P2;SDS_P1;SDS_P2;PMS_P1;PMS_P2;Temp;Humidity;BMP_temperature;BMP_pressure;BME280_temperature;BME280_humidity;BME280_pressure;Samples;Min_cycle;Max_cycle;Signal;HPM_P1;HPM_P2
2022/08/19 00:03:21;;;;;;;11.70;10.67;;;;;;;27.02;45.83;98246.84;7018499;28;20729;-80
2022/08/19 00:06:44;;;;;;;12.17;11.07;;;;;;;27.22;45.66;98254.53;7006019;28;20225;-80
2022/08/19 00:10:07;;;;;;;11.93;10.83;;;;;;;27.01;45.86;98262.63;7003859;28;20221;-80
2022/08/19 00:13:30;;;;;;;12.37;11.27;;;;;;;26.87;46.04;98263.91;7005607;28;20219;-79
2022/08/19 00:16:53;;;;;;;12.23;11.13;;;;;;;26.94;45.73;98253.19;7005052;28;20196;-80
2022/08/19 00:20:18;;;;;;;12.63;11.43;;;;;;;27.03;45.74;98270.63;7004849;28;20213;-80
2022/08/19 00:23:40;;;;;;;13.23;11.87;;;;;;;26.91;45.97;98267.69;7004416;28;20221;-80
2022/08/19 00:27:02;;;;;;;12.97;11.67;;;;;;;26.74;46.02;98259.34;7005102;28;20287;-80
2022/08/19 00:30:27;;;;;;;13.07;11.90;;;;;;;26.69;46.64;98273.31;7004535;28;20233;-80
2022/08/19 00:33:50;;;;;;;13.23;12.03;;;;;;;26.69;46.30;98254.78;7004980;28;20233;-80
2022/08/19 00:37:11;;;;;;;14.30;13.00;;;;;;;26.76;46.17;98255.13;7004802;28;20281;-80
2022/08/19 00:40:33;;;;;;;15.73;12.90;;;;;;;26.74;46.27;98245.50;7004430;28;20240;-80
2022/08/19 00:44:00;;;;;;;13.23;11.90;;;;;;;26.65;46.05;98234.44;7005493;28;20246;-79
2022/08/19 00:47:23;;;;;;;13.97;12.37;;;;;;;26.77;46.26;98256.75;7004549;28;20267;-80
2022/08/19 00:50:45;;;;;;;13.87;12.40;;;;;;;26.52;46.49;98237.28;7003925;28;20292;-80
2022/08/19 00:54:08;;;;;;;14.60;13.20;;;;;;;26.73;46.31;98254.94;7004902;28;20255;-80
2022/08/19 00:57:34;;;;;;;15.57;14.07;;;;;;;26.55;46.17;98245.78;7004139;28;20220;-80
2022/08/19 01:00:56;;;;;;;14.30;12.97;;;;;;;26.60;46.60;98264.19;7004620;28;20673;-80
2022/08/19 01:04:19;;;;;;;14.07;12.87;;;;;;;26.50;46.60;98261.69;7005049;28;20224;-79
2022/08/19 01:07:41;;;;;;;14.13;12.73;;;;;;;26.58;46.80;98264.50;7032495;28;20197;-80
2022/08/19 01:11:04;;;;;;;13.83;12.53;;;;;;;26.56;46.93;98263.22;7003573;28;20227;-79
2022/08/19 01:14:26;;;;;;;13.20;11.97;;;;;;;26.63;46.69;98269.91;7003980;28;20288;-80
2022/08/19 01:17:49;;;;;;;14.77;13.23;;;;;;;26.55;46.29;98250.53;7003332;28;20244;-80
2022/08/19 01:21:18;;;;;;;13.93;12.73;;;;;;;26.68;46.40;98244.88;7004221;28;20248;-80
2022/08/19 01:24:41;;;;;;;14.63;13.07;;;;;;;26.72;46.70;98253.31;7004745;28;20283;-79
2022/08/19 01:28:04;;;;;;;14.10;12.80;;;;;;;26.72;46.73;98248.59;7003195;28;20761;-79
2022/08/19 01:31:30;;;;;;;14.80;13.43;;;;;;;26.67;46.59;98245.97;7007323;28;20639;-79
2022/08/19 01:34:51;;;;;;;14.63;13.17;;;;;;;26.62;46.66;98240.63;7009267;28;20224;-79
2022/08/19 01:38:21;;;;;;;14.33;12.93;;;;;;;26.73;46.33;98241.13;7006523;28;20258;-80
2022/08/19 01:41:44;;;;;;;14.70;13.20;;;;;;;26.78;46.61;98250.06;7005343;28;20199;-80
2022/08/19 01:45:07;;;;;;;15.73;14.17;;;;;;;26.69;46.50;98253.97;7004055;28;20248;-79
2022/08/19 01:48:34;;;;;;;15.00;13.60;;;;;;;26.61;46.48;98255.56;7006815;28;20252;-81
2022/08/19 01:51:55;;;;;;;15.23;13.73;;;;;;;26.44;46.88;98244.44;7008708;28;20264;-79
2022/08/19 01:55:20;;;;;;;13.97;12.53;;;;;;;26.56;47.18;98246.63;7004857;28;20318;-79
2022/08/19 01:58:47;;;;;;;15.90;14.20;;;;;;;26.27;47.38;98219.50;7002851;28;20656;-79
2022/08/19 02:02:09;;;;;;;15.17;13.53;;;;;;;26.37;47.30;98251.56;7003014;28;20202;-79
2022/08/19 02:05:30;;;;;;;14.93;13.07;;;;;;;26.44;47.22;98252.75;7003134;28;20672;-79
2022/08/19 02:08:52;;;;;;;14.70;13.30;;;;;;;26.33;47.52;98259.69;7004521;28;20683;-79
2022/08/19 02:12:13;;;;;;;13.53;12.23;;;;;;;26.43;46.85;98233.69;7003301;28;20252;-79
2022/08/19 02:15:40;;;;;;;14.37;12.97;;;;;;;26.00;47.75;98233.53;7004654;28;20272;-79
2022/08/19 02:19:02;;;;;;;15.33;13.73;;;;;;;26.37;47.42;98252.38;7010521;28;20192;-79
2022/08/19 02:22:25;;;;;;;15.27;13.77;;;;;;;26.48;47.23;98266.75;7002835;28;20686;-79
2022/08/19 02:25:48;;;;;;;15.03;13.53;;;;;;;26.34;47.15;98241.13;7003479;28;20713;-80
2022/08/19 02:29:09;;;;;;;14.87;13.43;;;;;;;26.22;47.71;98250.06;7002545;28;20206;-80
2022/08/19 02:32:33;;;;;;;14.67;13.20;;;;;;;26.28;47.69;98273.66;7008134;28;20258;-80
2022/08/19 02:35:54;;;;;;;14.97;13.33;;;;;;;26.04;48.52;98255.81;7009342;28;20235;-80
2022/08/19 02:39:16;;;;;;;16.13;14.27;;;;;;;26.27;47.75;98260.97;7009249;28;20208;-80
2022/08/19 02:42:37;;;;;;;15.47;13.73;;;;;;;26.04;47.92;98237.31;7013192;28;20665;-80
2022/08/19 02:46:00;;;;;;;16.70;14.77;;;;;;;26.21;48.04;98259.50;7011706;28;20747;-80
2022/08/19 02:49:23;;;;;;;15.93;14.43;;;;;;;26.06;48.50;98250.78;7015135;28;20217;-81
2022/08/19 02:52:45;;;;;;;17.80;14.23;;;;;;;25.91;48.55;98246.50;7016823;28;20230;-80
2022/08/19 02:56:07;;;;;;;18.10;15.33;;;;;;;25.93;48.68;98246.16;7019263;28;20870;-80
2022/08/19 02:59:30;;;;;;;15.90;14.30;;;;;;;26.03;48.32;98210.81;7015882;28;20621;-79
2022/08/19 03:02:52;;;;;;;17.50;15.70;;;;;;;26.07;48.42;98244.16;7017341;28;20294;-80
2022/08/19 03:06:19;;;;;;;16.73;14.60;;;;;;;25.59;49.22;98199.81;7016329;28;20258;-80
2022/08/19 03:09:42;;;;;;;16.60;14.97;;;;;;;25.93;49.01;98241.47;7017427;28;20262;-80
2022/08/19 03:13:03;;;;;;;18.17;16.20;;;;;;;25.98;48.61;98246.03;7019396;28;20236;-80
2022/08/19 03:16:27;;;;;;;20.33;16.90;;;;;;;25.91;49.37;98249.28;7019127;28;20258;-80
2022/08/19 03:19:49;;;;;;;19.80;16.67;;;;;;;25.70;49.80;98248.13;7034337;28;20190;-80
2022/08/19 03:23:13;;;;;;;17.80;16.00;;;;;;;25.95;49.17;98260.50;7027086;28;20227;-80
2022/08/19 03:26:39;;;;;;;18.67;15.90;;;;;;;25.87;49.55;98267.56;7031618;28;20604;-80
2022/08/19 03:30:01;;;;;;;19.27;17.23;;;;;;;25.84;49.08;98248.06;7006800;28;20677;-81
2022/08/19 03:33:22;;;;;;;19.23;17.23;;;;;;;26.00;49.39;98269.44;7007487;28;20221;-80
2022/08/19 03:36:44;;;;;;;18.37;16.47;;;;;;;25.87;49.13;98239.13;7007377;28;20239;-80
2022/08/19 03:40:08;;;;;;;19.40;17.40;;;;;;;25.93;49.62;98274.63;7009599;28;20250;-80
2022/08/19 03:43:30;;;;;;;20.40;17.60;;;;;;;25.78;50.05;98269.44;7014312;28;20229;-81
2022/08/19 03:46:57;;;;;;;19.83;16.83;;;;;;;25.87;49.23;98253.75;7011280;28;20341;-81
2022/08/19 03:50:19;;;;;;;18.23;16.37;;;;;;;25.85;49.81;98263.50;7009189;28;20722;-81
2022/08/19 03:53:40;;;;;;;20.07;17.67;;;;;;;25.91;49.51;98262.25;7009795;28;20247;-80
2022/08/19 03:57:04;;;;;;;22.53;18.47;;;;;;;25.42;50.67;98270.69;7008489;28;20612;-81
2022/08/19 04:00:26;;;;;;;20.50;17.87;;;;;;;25.78;50.23;98271.41;7008770;28;20243;-80
2022/08/19 04:03:48;;;;;;;19.93;17.83;;;;;;;25.58;50.52;98269.16;7008822;28;20229;-80
2022/08/19 04:07:11;;;;;;;19.43;17.43;;;;;;;25.64;50.09;98263.22;7009043;28;20212;-80
2022/08/19 04:10:36;;;;;;;20.23;18.23;;;;;;;25.47;50.61;98243.75;7011054;28;20684;-79
2022/08/19 04:14:00;;;;;;;19.13;17.13;;;;;;;25.57;50.24;98248.19;7018879;28;20309;-79
2022/08/19 04:17:22;;;;;;;20.30;18.03;;;;;;;25.50;50.78;98254.19;7013960;28;20204;-80
2022/08/19 04:20:45;;;;;;;22.83;19.40;;;;;;;25.12;51.98;98257.59;7012709;28;20209;-80
2022/08/19 04:24:07;;;;;;;20.73;18.27;;;;;;;25.35;51.59;98262.00;7014924;28;20445;-82
2022/08/19 04:27:29;;;;;;;23.07;19.90;;;;;;;25.44;51.06;98260.97;7013682;28;20281;-80
2022/08/19 04:30:54;;;;;;;22.73;18.80;;;;;;;25.50;50.76;98243.16;7025190;28;20257;-81
2022/08/19 04:34:21;;;;;;;21.77;19.57;;;;;;;25.38;51.22;98250.34;7031501;28;20251;-79
2022/08/19 04:37:43;;;;;;;22.50;20.10;;;;;;;25.28;51.28;98259.69;7056189;28;20205;-80
2022/08/19 04:44:44;;;;;;;20.40;18.30;;;;;;;25.46;50.95;98263.38;7017801;28;20224;-80
2022/08/19 04:48:07;;;;;;;24.50;20.30;;;;;;;25.38;51.41;98264.97;7035465;28;20201;-80
2022/08/19 04:51:30;;;;;;;21.43;19.20;;;;;;;25.68;50.49;98255.09;7036365;28;20223;-80
2022/08/19 04:54:51;;;;;;;21.17;18.17;;;;;;;25.74;50.33;98256.59;7036050;28;20247;-81
2022/08/19 04:58:13;;;;;;;21.27;18.97;;;;;;;25.49;50.61;98260.00;7034751;28;20257;-80
2022/08/19 05:01:36;;;;;;;24.03;20.83;;;;;;;25.34;51.14;98261.22;7036075;28;20210;-80
2022/08/19 05:05:00;;;;;;;20.87;18.67;;;;;;;25.02;51.96;98252.31;7038180;28;20225;-80
2022/08/19 05:08:22;;;;;;;23.13;20.07;;;;;;;25.40;51.12;98282.03;7006091;28;20273;-80
2022/08/19 05:11:44;;;;;;;23.00;20.23;;;;;;;25.35;51.08;98284.09;7009274;28;20232;-80
2022/08/19 05:15:08;;;;;;;23.13;20.73;;;;;;;25.49;50.50;98301.44;7009546;28;20286;-80
2022/08/19 05:25:49;;;;;;;22.90;19.83;;;;;;;25.38;51.38;98334.00;7031155;28;20219;-80
2022/08/19 05:29:11;;;;;;;22.70;20.37;;;;;;;25.31;51.82;98352.09;7008018;28;20212;-80
2022/08/19 05:32:33;;;;;;;22.67;20.27;;;;;;;25.40;51.07;98344.69;7054238;28;20228;-80
2022/08/19 05:35:55;;;;;;;21.37;19.17;;;;;;;25.35;50.86;98345.63;7034109;28;20246;-80
2022/08/19 05:39:21;;;;;;;24.80;21.03;;;;;;;25.44;50.82;98360.34;7033613;28;20217;-80
2022/08/19 05:42:43;;;;;;;22.17;19.87;;;;;;;25.49;50.92;98370.44;7033764;28;20189;-80
2022/08/19 05:46:06;;;;;;;24.17;21.00;;;;;;;25.38;51.32;98371.81;7035831;28;20561;-80
2022/08/19 05:49:28;;;;;;;23.13;20.73;;;;;;;25.56;50.85;98360.63;7032327;28;20218;-80
2022/08/19 05:52:50;;;;;;;24.47;21.97;;;;;;;25.08;51.52;98322.78;7032650;28;20224;-80
2022/08/19 05:56:15;;;;;;;23.37;21.10;;;;;;;25.07;50.65;98285.28;7030023;28;20224;-80
2022/08/19 05:59:37;;;;;;;24.67;22.03;;;;;;;25.47;51.38;98364.41;7015904;28;20213;-80
2022/08/19 06:03:02;;;;;;;25.00;22.20;;;;;;;25.55;50.62;98358.94;7005395;28;20212;-80
2022/08/19 06:06:24;;;;;;;25.17;22.57;;;;;;;25.55;50.82;98360.91;7005142;28;20220;-80
2022/08/19 06:09:45;;;;;;;23.80;21.20;;;;;;;25.64;50.51;98365.38;7005905;28;20587;-80
2022/08/19 06:13:08;;;;;;;23.77;21.00;;;;;;;25.57;50.91;98364.16;7004880;28;20257;-80
2022/08/19 06:16:31;;;;;;;23.87;21.40;;;;;;;25.32;51.34;98349.00;7005289;28;20257;-80
2022/08/19 06:19:53;;;;;;;25.53;22.67;;;;;;;25.63;50.82;98362.91;7003665;28;20207;-80
2022/08/19 06:23:14;;;;;;;25.77;21.77;;;;;;;25.71;50.62;98360.22;7004549;28;20228;-81
2022/08/19 06:26:38;;;;;;;22.60;20.47;;;;;;;25.56;51.07;98343.22;7004197;28;20290;-81
2022/08/19 06:30:01;;;;;;;26.27;21.77;;;;;;;25.47;51.42;98365.22;7003845;28;20204;-81
2022/08/19 06:33:23;;;;;;;23.63;21.33;;;;;;;25.31;51.10;98363.13;7004385;28;20350;-81
2022/08/19 06:36:47;;;;;;;25.47;22.87;;;;;;;25.36;52.25;98369.34;7003909;28;20205;-81
2022/08/19 06:40:10;;;;;;;24.73;22.33;;;;;;;25.14;52.59;98357.41;7025675;28;20308;-81
2022/08/19 06:43:33;;;;;;;26.67;23.57;;;;;;;25.65;51.76;98369.75;7031725;28;20310;-81
2022/08/19 06:46:56;;;;;;;27.50;23.70;;;;;;;25.16;53.71;98364.25;7029200;28;20643;-81
2022/08/19 06:50:18;;;;;;;26.70;24.07;;;;;;;25.52;54.32;98359.59;7026519;28;20204;-81
2022/08/19 06:53:40;;;;;;;29.73;26.17;;;;;;;25.30;55.07;98375.31;7033916;28;20223;-81
2022/08/19 06:57:02;;;;;;;26.20;23.43;;;;;;;25.69;54.21;98378.25;7032699;28;20577;-80
2022/08/19 07:00:24;;;;;;;32.53;27.83;;;;;;;25.49;55.86;98379.53;7032017;28;20773;-79
2022/08/19 07:03:47;;;;;;;29.07;25.97;;;;;;;25.40;55.67;98373.13;7032454;28;20230;-79
2022/08/19 07:07:12;;;;;;;33.60;28.73;;;;;;;25.26;56.45;98375.09;7032620;28;20201;-79
2022/08/19 07:10:34;;;;;;;30.63;27.33;;;;;;;25.41;56.83;98379.44;7032487;28;20207;-80
2022/08/19 07:13:56;;;;;;;32.57;28.67;;;;;;;25.04;58.05;98388.81;7026596;28;20313;-79
2022/08/19 07:17:18;;;;;;;30.60;27.23;;;;;;;25.06;57.66;98381.03;7032654;28;20214;-79
2022/08/19 07:20:41;;;;;;;32.70;28.80;;;;;;;25.00;57.42;98381.44;7032420;28;20204;-79
2022/08/19 07:24:03;;;;;;;30.47;27.27;;;;;;;25.13;57.03;98377.88;7032592;28;20256;-79
2022/08/19 07:27:25;;;;;;;31.97;27.57;;;;;;;25.24;57.08;98388.38;7034013;28;20201;-80
2022/08/19 07:30:46;;;;;;;29.57;26.53;;;;;;;25.13;57.10;98386.16;7032755;28;20234;-78
2022/08/19 07:34:10;;;;;;;30.57;27.47;;;;;;;24.84;58.17;98389.22;7029495;28;20229;-79
2022/08/19 07:37:34;;;;;;;31.37;28.10;;;;;;;25.17;57.99;98387.13;7039497;28;20230;-79
2022/08/19 07:40:56;;;;;;;30.13;27.03;;;;;;;25.05;57.15;98397.88;7050377;28;20207;-79
2022/08/19 07:44:19;;;;;;;30.67;27.37;;;;;;;25.34;57.00;98393.69;7043387;28;20262;-78
2022/08/19 07:47:41;;;;;;;32.07;27.73;;;;;;;25.25;56.31;98367.94;7036748;28;20264;-79
2022/08/19 07:51:07;;;;;;;30.73;27.53;;;;;;;25.10;57.59;98398.59;7036195;28;20231;-79
2022/08/19 07:54:34;;;;;;;31.90;28.10;;;;;;;25.03;57.55;98380.84;7035975;28;20280;-79
2022/08/19 07:57:55;;;;;;;29.90;26.80;;;;;;;25.38;57.46;98403.00;7035469;28;20193;-80
2022/08/19 08:01:19;;;;;;;31.70;28.30;;;;;;;25.61;57.50;98387.28;7031247;28;20251;-79
2022/08/19 08:12:10;;;;;;;30.33;27.17;;;;;;;25.40;57.36;98400.72;7035610;28;20204;-80
2022/08/19 08:15:32;;;;;;;32.30;28.80;;;;;;;25.39;57.90;98401.88;7036766;28;20390;-79
2022/08/19 08:18:53;;;;;;;31.40;28.00;;;;;;;25.39;57.58;98404.63;7034168;28;20204;-79
2022/08/19 08:23:22;;;;;;;28.13;25.23;;;;;;;25.51;57.28;98390.25;7035451;28;20203;-79
2022/08/19 08:26:06;;;;;;;29.20;25.93;;;;;;;25.16;57.76;98408.41;7035217;28;20210;-79
2022/08/19 08:29:30;;;;;;;30.10;25.00;;;;;;;25.22;57.07;98409.09;7023998;28;20204;-80
2022/08/19 08:32:52;;;;;;;27.27;24.20;;;;;;;25.34;56.99;98409.44;7007329;28;20319;-80
2022/08/19 08:36:14;;;;;;;25.93;22.10;;;;;;;25.12;56.99;98396.34;7007237;28;20196;-80
2022/08/19 08:39:36;;;;;;;26.57;21.97;;;;;;;25.36;55.99;98408.00;7006424;28;20217;-80
2022/08/19 08:43:04;;;;;;;24.33;20.43;;;;;;;25.57;56.12;98395.38;7005767;28;20221;-80
2022/08/19 08:46:34;;;;;;;24.30;21.30;;;;;;;25.39;56.75;98401.03;7007982;28;20199;-80
2022/08/19 08:50:00;;;;;;;23.33;20.67;;;;;;;25.47;55.63;98392.84;7006262;28;20240;-80
2022/08/19 08:53:22;;;;;;;24.37;21.73;;;;;;;25.68;55.31;98394.00;7006949;28;20238;-80
2022/08/19 08:56:45;;;;;;;24.60;20.77;;;;;;;25.51;55.38;98393.03;7007436;28;20208;-80
2022/08/19 09:00:09;;;;;;;23.83;21.30;;;;;;;25.75;55.38;98412.88;7007233;28;20297;-79
2022/08/19 09:03:32;;;;;;;24.90;22.20;;;;;;;25.64;55.34;98415.09;7007892;28;20226;-79
2022/08/19 09:06:59;;;;;;;21.50;19.40;;;;;;;24.98;55.65;98417.63;7006482;28;20207;-79
2022/08/19 09:10:26;;;;;;;22.27;19.97;;;;;;;24.94;56.25;98419.34;7005981;28;20236;-79
2022/08/19 09:13:57;;;;;;;22.77;20.47;;;;;;;24.80;56.47;98390.13;7006762;28;20243;-79
2022/08/19 09:17:27;;;;;;;24.23;20.57;;;;;;;25.05;55.92;98425.47;7007070;28;20259;-79
2022/08/19 09:20:50;;;;;;;24.00;21.50;;;;;;;25.21;56.13;98400.03;7005716;28;20205;-79
2022/08/19 09:24:12;;;;;;;24.73;22.10;;;;;;;25.24;55.66;98396.66;7005833;28;20356;-79
2022/08/19 09:27:36;;;;;;;26.20;23.50;;;;;;;25.35;56.31;98409.13;7005766;28;20291;-79
2022/08/19 09:30:58;;;;;;;24.83;22.43;;;;;;;25.63;55.84;98418.16;7005477;28;20243;-81
2022/08/19 09:34:20;;;;;;;24.73;22.23;;;;;;;25.64;55.00;98425.28;7004949;28;20227;-80
2022/08/19 09:37:43;;;;;;;33.87;23.40;;;;;;;25.58;55.11;98418.25;7004622;28;20204;-80
2022/08/19 09:41:06;;;;;;;30.33;23.17;;;;;;;25.78;55.58;98429.66;7004901;28;20268;-80
2022/08/19 09:44:27;;;;;;;26.60;22.00;;;;;;;25.59;55.53;98414.41;7004764;28;20218;-80
2022/08/19 09:47:50;;;;;;;26.23;23.13;;;;;;;25.55;56.29;98436.25;7004489;28;20209;-82
2022/08/19 09:51:15;;;;;;;25.40;22.77;;;;;;;25.74;56.35;98442.47;7006579;28;20281;-80
2022/08/19 09:54:38;;;;;;;26.87;23.90;;;;;;;25.47;57.19;98425.97;7022188;28;20232;-80
2022/08/19 09:58:01;;;;;;;29.80;24.80;;;;;;;25.22;58.79;98431.19;7004094;28;20190;-80
2022/08/19 10:01:25;;;;;;;26.53;23.50;;;;;;;25.37;57.91;98431.69;7005208;28;20198;-81
2022/08/19 10:08:28;;;;;;;26.33;23.60;;;;;;;25.63;58.10;98431.94;7004419;28;20188;-82
2022/08/19 10:11:51;;;;;;;27.47;24.70;;;;;;;25.60;57.93;98427.06;7006603;28;20225;-82
2022/08/19 10:15:13;;;;;;;25.53;22.93;;;;;;;26.07;56.11;98437.56;7030969;28;20216;-81
2022/08/19 10:18:34;;;;;;;24.63;22.20;;;;;;;25.82;56.23;98433.44;7013114;28;20203;-82
2022/08/19 10:21:56;;;;;;;26.67;23.87;;;;;;;26.00;57.21;98423.34;7008393;28;20200;-82
2022/08/19 10:25:18;;;;;;;26.40;23.53;;;;;;;25.98;57.29;98425.63;7007667;28;20223;-81
2022/08/19 10:28:41;;;;;;;27.00;24.13;;;;;;;26.13;57.54;98434.34;7006514;28;20222;-81
2022/08/19 10:32:05;;;;;;;28.93;25.37;;;;;;;25.86;58.25;98401.31;7008387;28;20222;-82
2022/08/19 10:35:29;;;;;;;27.87;25.00;;;;;;;25.68;59.25;98434.59;7009168;28;20226;-81
2022/08/19 10:38:53;;;;;;;28.60;25.30;;;;;;;25.75;59.49;98408.19;7009106;28;20220;-82
2022/08/19 10:42:16;;;;;;;27.70;24.70;;;;;;;25.89;59.08;98417.22;7010057;28;20207;-81
2022/08/19 10:45:38;;;;;;;26.60;23.93;;;;;;;25.72;57.92;98363.81;7016456;28;20222;-81
2022/08/19 10:49:01;;;;;;;26.17;23.10;;;;;;;26.46;56.13;98437.66;7025935;28;20199;-81
2022/08/19 10:52:33;;;;;;;28.47;25.50;;;;;;;26.31;57.54;98438.06;7007926;28;20232;-81
2022/08/19 10:59:35;;;;;;;26.53;23.77;;;;;;;26.31;56.38;98413.97;7006300;28;20201;-81
2022/08/19 11:02:58;;;;;;;27.07;24.27;;;;;;;26.48;57.34;98419.63;7005911;28;20217;-81
2022/08/19 11:06:20;;;;;;;28.73;25.67;;;;;;;26.34;57.24;98416.13;7005770;28;20210;-81
2022/08/19 11:09:42;;;;;;;28.30;25.27;;;;;;;26.38;58.02;98427.38;7010511;28;20201;-80
2022/08/19 11:13:04;;;;;;;28.03;24.90;;;;;;;26.37;58.35;98428.50;7026721;28;20229;-80
2022/08/19 11:16:29;;;;;;;28.23;25.00;;;;;;;26.51;57.93;98415.41;7038892;28;20204;-80
2022/08/19 11:19:52;;;;;;;26.43;23.53;;;;;;;26.57;57.51;98420.53;7038173;28;20196;-80
2022/08/19 11:23:14;;;;;;;25.57;22.87;;;;;;;26.56;57.14;98413.38;7037901;28;20705;-80
2022/08/19 11:26:37;;;;;;;25.73;23.13;;;;;;;26.34;57.90;98420.81;7024960;28;20219;-80
2022/08/19 11:29:58;;;;;;;26.53;22.87;;;;;;;26.32;57.46;98418.38;7040533;28;20197;-80
2022/08/19 11:33:20;;;;;;;25.70;23.13;;;;;;;26.11;57.96;98408.16;7039022;28;20238;-79
2022/08/19 11:36:44;;;;;;;27.37;24.47;;;;;;;26.17;58.09;98424.31;7031028;28;20262;-80
2022/08/19 11:40:07;;;;;;;25.90;22.90;;;;;;;26.13;58.12;98403.16;7029543;28;20719;-80
2022/08/19 11:43:30;;;;;;;26.37;23.57;;;;;;;26.18;58.29;98411.31;7036927;28;20316;-80
2022/08/19 11:46:52;;;;;;;28.97;23.43;;;;;;;25.87;59.12;98413.16;7038794;28;20202;-80
2022/08/19 11:50:14;;;;;;;26.80;24.20;;;;;;;25.81;59.97;98426.28;7019832;28;20194;-83
2022/08/19 11:53:37;;;;;;;27.13;24.17;;;;;;;25.93;60.11;98417.47;7009883;28;20243;-83
2022/08/19 11:56:59;;;;;;;27.40;24.73;;;;;;;26.17;58.97;98421.53;7009465;28;20585;-79
2022/08/19 12:00:21;;;;;;;27.33;24.07;;;;;;;26.32;58.40;98418.38;7009285;28;20213;-79
2022/08/19 12:03:43;;;;;;;27.30;24.13;;;;;;;26.24;58.83;98416.38;7033631;28;20220;-79
2022/08/19 12:07:06;;;;;;;25.30;22.77;;;;;;;26.23;58.32;98391.81;7018982;28;20198;-79
2022/08/19 12:10:29;;;;;;;26.77;23.93;;;;;;;26.23;57.94;98398.16;7006333;28;20216;-78
2022/08/19 12:13:50;;;;;;;28.87;22.13;;;;;;;26.38;57.42;98413.56;7022149;28;20230;-79
2022/08/19 12:17:13;;;;;;;25.53;22.43;;;;;;;26.24;58.07;98401.75;7037913;28;20205;-79
2022/08/19 12:20:35;;;;;;;24.17;21.57;;;;;;;26.40;57.67;98419.56;7035685;28;20197;-79
2022/08/19 12:23:58;;;;;;;26.60;23.77;;;;;;;25.85;59.07;98419.00;7036786;28;20318;-79
2022/08/19 12:27:21;;;;;;;25.80;23.13;;;;;;;25.93;58.97;98392.59;7033778;28;20330;-78
2022/08/19 12:30:43;;;;;;;25.30;22.60;;;;;;;26.17;58.48;98424.31;7030004;28;20201;-78
2022/08/19 12:34:04;;;;;;;28.67;25.67;;;;;;;25.94;58.96;98430.97;7032082;28;20234;-78
2022/08/19 12:37:26;;;;;;;27.00;24.17;;;;;;;25.84;59.95;98409.06;7009267;28;20207;-79
2022/08/19 12:40:49;;;;;;;27.33;24.60;;;;;;;26.13;59.46;98417.78;7007801;28;20198;-79
2022/08/19 12:44:12;;;;;;;26.43;23.63;;;;;;;25.95;59.75;98429.03;7033373;28;20218;-79
2022/08/19 12:47:33;;;;;;;29.30;26.27;;;;;;;25.81;60.59;98390.38;7008841;28;20196;-79
2022/08/19 12:50:55;;;;;;;28.40;25.47;;;;;;;25.91;59.98;98408.69;7009750;28;20269;-79
2022/08/19 12:54:17;;;;;;;27.67;24.87;;;;;;;26.04;60.20;98413.31;7008713;28;20249;-79
2022/08/19 12:57:38;;;;;;;28.50;25.47;;;;;;;25.99;59.64;98424.50;7009010;28;20273;-79
2022/08/19 13:01:07;;;;;;;27.47;24.60;;;;;;;25.99;59.87;98422.56;7010510;28;20219;-79
2022/08/19 13:04:28;;;;;;;25.37;22.67;;;;;;;26.04;58.84;98396.75;7008245;28;20303;-79
2022/08/19 13:07:51;;;;;;;28.37;25.63;;;;;;;25.85;59.72;98430.06;7008502;28;20213;-79
2022/08/19 13:11:14;;;;;;;26.90;24.00;;;;;;;25.63;60.59;98440.25;7008804;28;20219;-79
2022/08/19 13:14:36;;;;;;;27.13;24.30;;;;;;;25.66;60.15;98434.91;7027021;28;20239;-79
2022/08/19 13:17:59;;;;;;;26.57;23.87;;;;;;;25.61;60.82;98443.31;7034582;28;20205;-79
2022/08/19 13:21:23;;;;;;;26.40;23.67;;;;;;;25.27;61.88;98434.69;7027664;28;20209;-79
2022/08/19 13:24:45;;;;;;;27.53;24.70;;;;;;;25.24;61.35;98424.25;7036901;28;20230;-79
2022/08/19 13:28:07;;;;;;;26.40;23.73;;;;;;;25.40;61.12;98449.59;7036814;28;20662;-79
2022/08/19 13:35:10;;;;;;;30.00;26.40;;;;;;;24.88;62.97;98439.88;7015254;28;20234;-79
2022/08/19 13:38:32;;;;;;;29.53;26.53;;;;;;;24.91;62.25;98433.78;7014914;28;20258;-79
2022/08/19 13:41:53;;;;;;;28.43;25.53;;;;;;;24.97;62.73;98424.28;7025874;28;20232;-78
2022/08/19 13:45:17;;;;;;;27.07;24.30;;;;;;;25.12;61.89;98425.91;7038449;28;20223;-78
2022/08/19 13:48:40;;;;;;;27.67;24.17;;;;;;;25.35;61.53;98425.69;7044510;28;20544;-79
2022/08/19 13:52:04;;;;;;;27.07;24.27;;;;;;;25.26;61.10;98426.72;7028705;28;20201;-80
2022/08/19 13:55:27;;;;;;;28.23;25.23;;;;;;;25.34;60.66;98413.00;7050015;28;20235;-78
2022/08/19 13:58:48;;;;;;;28.03;23.77;;;;;;;25.37;60.81;98436.44;7033088;28;20209;-78
2022/08/19 14:02:11;;;;;;;24.23;21.73;;;;;;;25.46;60.14;98434.56;7032560;28;20298;-78
2022/08/19 14:05:33;;;;;;;24.50;21.80;;;;;;;25.19;60.98;98429.06;7032372;28;20234;-79
2022/08/19 14:08:56;;;;;;;25.50;22.80;;;;;;;25.21;61.87;98433.16;7032024;28;20696;-78
2022/08/19 14:12:20;;;;;;;26.10;23.60;;;;;;;25.53;60.68;98430.25;7047533;28;20249;-78
2022/08/19 14:15:41;;;;;;;27.00;24.30;;;;;;;25.49;61.63;98439.47;7040380;28;20257;-79
2022/08/19 14:19:03;;;;;;;22.73;20.43;;;;;;;25.64;60.13;98442.69;7031857;28;20204;-79
2022/08/19 14:22:25;;;;;;;24.10;21.73;;;;;;;25.81;60.18;98450.31;7031962;28;20215;-78
2022/08/19 14:25:47;;;;;;;26.47;23.90;;;;;;;25.75;60.24;98443.28;7032308;28;20246;-78
2022/08/19 14:29:09;;;;;;;24.47;22.00;;;;;;;25.73;60.34;98423.44;7031554;28;20207;-78
2022/08/19 14:32:31;;;;;;;23.03;20.73;;;;;;;25.78;60.25;98418.59;7031359;28;20272;-78
2022/08/19 14:35:52;;;;;;;23.97;21.77;;;;;;;26.05;59.87;98428.75;7031128;28;20315;-78
2022/08/19 14:39:14;;;;;;;24.33;21.97;;;;;;;26.14;59.06;98433.22;7030437;28;20207;-77
2022/08/19 14:42:37;;;;;;;28.00;25.00;;;;;;;25.41;60.24;98394.09;7033461;28;20207;-79
2022/08/19 14:45:58;;;;;;;28.13;25.30;;;;;;;25.38;61.59;98444.41;7035186;28;20228;-78
2022/08/19 14:49:20;;;;;;;29.00;26.00;;;;;;;25.81;59.88;98444.78;7029995;28;20236;-78
2022/08/19 14:52:41;;;;;;;27.23;24.60;;;;;;;25.69;60.46;98436.22;7022232;28;20272;-78
2022/08/19 14:56:08;;;;;;;29.60;26.50;;;;;;;25.78;59.74;98451.75;7036804;28;20282;-79
2022/08/19 14:59:32;;;;;;;27.27;24.40;;;;;;;25.80;59.96;98451.44;7036322;28;20587;-79
2022/08/19 15:02:54;;;;;;;28.80;25.80;;;;;;;25.67;60.22;98446.78;7035983;28;20246;-78
2022/08/19 15:06:16;;;;;;;28.77;25.83;;;;;;;25.43;61.28;98440.72;7036482;28;20290;-79
2022/08/19 15:09:37;;;;;;;27.80;24.93;;;;;;;25.25;61.67;98434.19;7036052;28;20717;-79
2022/08/19 15:12:59;;;;;;;29.40;25.77;;;;;;;25.22;61.40;98433.94;7027768;28;20255;-78
2022/08/19 15:16:22;;;;;;;28.50;25.60;;;;;;;25.12;61.83;98434.97;7027573;28;20643;-78
2022/08/19 15:19:44;;;;;;;30.33;27.33;;;;;;;24.96;61.84;98441.91;7034332;28;20244;-78
2022/08/19 15:23:06;;;;;;;30.73;27.60;;;;;;;25.08;61.64;98450.50;7035189;28;20223;-79
2022/08/19 15:26:31;;;;;;;30.40;27.20;;;;;;;24.91;62.14;98399.84;7035463;28;20207;-78
2022/08/19 15:29:52;;;;;;;29.43;26.50;;;;;;;25.07;61.87;98448.88;7034882;28;20201;-78
2022/08/19 15:33:18;;;;;;;27.63;24.93;;;;;;;25.11;61.33;98440.78;7032301;28;20273;-78
2022/08/19 15:36:39;;;;;;;27.73;24.93;;;;;;;25.31;60.85;98449.50;7032931;28;20197;-78
2022/08/19 15:40:01;;;;;;;28.00;25.23;;;;;;;25.12;61.08;98431.41;7007658;28;20469;-79
2022/08/19 15:43:23;;;;;;;25.67;23.27;;;;;;;25.07;61.18;98437.03;7033471;28;20232;-78
2022/08/19 15:46:46;;;;;;;26.07;23.40;;;;;;;25.23;60.51;98452.97;7035407;28;20203;-79
2022/08/19 15:50:11;;;;;;;27.37;24.47;;;;;;;24.84;61.51;98457.34;7034401;28;20343;-79
2022/08/19 15:53:32;;;;;;;25.83;23.23;;;;;;;24.84;61.51;98443.56;7033409;28;20327;-79
2022/08/19 16:08:01;;;;;;;26.60;24.07;;;;;;;24.32;62.56;98469.59;7034754;28;20202;-79
2022/08/19 16:11:24;;;;;;;24.80;22.20;;;;;;;24.49;62.98;98472.56;7034750;28;20222;-79
2022/08/19 16:14:47;;;;;;;24.97;22.27;;;;;;;24.44;63.38;98469.94;7034875;28;20595;-79